Akiak, Alaska
Current Conditions -  °F | °C
As of 6:56 PM on Wednesday 22 Oct 2014 (Local Time) from PFKW Reporting Station
Clear Clear  
Wind Chill: 24°   Ceiling: Unl
Heat Index: 29°   Visibility: 10mi
Dew Point: 26°   Wind: 5mph
Humidity: 89%   Direction: 290°WNW
Pressure: 29.86"   Gusts: NA
Location:  60.92°N, 161.23°W
Report Text: PFKW 230256Z AUTO 29004KT 10SM CLR M02/M03 A2986 RMK AO2 SLP113 60000 T10171033 53012 FZRANO
Loading
Personal Weather Stations






























Interactive Weather Map
Tropical Storm Tracking
New forecast layout! Learn more

10-Day Weather Forecast

Advertisements
Track Severe Weather on mobile